createdAt,value
2022-11-09T00:01:27.456Z,12.11
2022-11-09T00:03:59.138Z,12.06
2022-11-09T00:06:27.169Z,12.02
2022-11-09T00:08:54.571Z,12.07
2022-11-09T00:11:21.752Z,12.01
2022-11-09T00:13:49.462Z,12.12
2022-11-09T00:16:19.031Z,12.15
2022-11-09T00:18:49.004Z,12.16
2022-11-09T00:21:20.924Z,12.04
2022-11-09T00:23:48.273Z,12.00
2022-11-09T00:26:17.090Z,11.83
2022-11-09T00:28:43.996Z,11.84
2022-11-09T00:31:14.022Z,11.80
2022-11-09T00:33:41.068Z,11.68
2022-11-09T00:36:12.083Z,11.77
2022-11-09T00:38:40.688Z,11.76
2022-11-09T00:41:09.932Z,11.79
2022-11-09T00:43:37.626Z,11.83
2022-11-09T00:46:06.098Z,11.80
2022-11-09T00:48:33.276Z,11.82
2022-11-09T00:51:02.314Z,11.78
2022-11-09T00:53:30.554Z,11.76
2022-11-09T00:55:58.655Z,11.84
2022-11-09T00:58:31.093Z,11.84
2022-11-09T01:00:59.416Z,11.92
2022-11-09T01:03:27.300Z,11.96
2022-11-09T01:05:54.338Z,12.08
2022-11-09T01:08:21.165Z,12.19
2022-11-09T01:10:48.922Z,12.20
2022-11-09T01:13:18.240Z,12.24
2022-11-09T01:15:51.433Z,12.29
2022-11-09T01:18:20.107Z,12.39
2022-11-09T01:20:49.109Z,12.48
2022-11-09T01:23:18.619Z,12.43
2022-11-09T01:25:45.946Z,12.54
2022-11-09T01:28:13.029Z,12.56
2022-11-09T01:30:42.419Z,12.63
2022-11-09T01:33:12.103Z,12.71
2022-11-09T01:35:40.580Z,12.68
2022-11-09T01:38:08.987Z,12.71
2022-11-09T01:40:38.559Z,12.67
2022-11-09T01:43:21.350Z,12.63
2022-11-09T01:45:52.152Z,12.72
2022-11-09T01:48:34.717Z,12.79
2022-11-09T01:51:28.119Z,12.84
2022-11-09T01:54:02.690Z,12.84
2022-11-09T01:56:32.622Z,12.85
2022-11-09T01:59:04.106Z,12.79
2022-11-09T02:01:32.135Z,12.81
2022-11-09T02:04:07.107Z,12.86
2022-11-09T02:06:35.612Z,12.96
2022-11-09T02:09:19.893Z,12.98
2022-11-09T02:11:46.738Z,12.95
2022-11-09T02:14:13.931Z,12.92
2022-11-09T02:16:41.141Z,12.76
2022-11-09T02:19:08.085Z,12.83
2022-11-09T02:21:35.091Z,12.78
2022-11-09T02:24:02.039Z,12.88
2022-11-09T02:26:37.682Z,12.88
2022-11-09T02:29:07.834Z,12.97
2022-11-09T02:31:38.776Z,13.00
2022-11-09T02:34:12.046Z,13.05
2022-11-09T02:36:39.074Z,12.91
2022-11-09T02:39:12.976Z,12.90
2022-11-09T02:41:48.358Z,12.94
2022-11-09T02:44:16.739Z,12.81
2022-11-09T02:46:43.887Z,12.95
2022-11-09T02:49:11.560Z,12.87
2022-11-09T02:51:38.717Z,12.85
2022-11-09T02:54:05.638Z,12.81
2022-11-09T02:56:32.537Z,12.70
2022-11-09T02:58:59.967Z,12.60
2022-11-09T03:01:26.913Z,12.71
2022-11-09T03:03:53.791Z,12.61
2022-11-09T03:26:00.770Z,11.32
2022-11-09T03:28:28.705Z,11.51
2022-11-09T03:30:56.722Z,11.64
2022-11-09T03:33:23.806Z,11.74
2022-11-09T03:35:51.455Z,11.87
2022-11-09T03:38:19.595Z,11.96
2022-11-09T03:40:47.678Z,12.11
2022-11-09T03:43:14.737Z,12.12
2022-11-09T03:45:42.189Z,12.21
2022-11-09T03:48:09.156Z,12.28
2022-11-09T03:50:40.416Z,12.39
2022-11-09T03:53:09.665Z,12.49
2022-11-09T03:55:37.112Z,12.54
2022-11-09T03:58:05.315Z,12.56
2022-11-09T04:00:32.549Z,12.67
2022-11-09T04:02:59.696Z,12.73
2022-11-09T04:05:26.745Z,12.78
2022-11-09T04:07:55.631Z,12.72
2022-11-09T04:10:23.908Z,12.76
2022-11-09T04:12:50.688Z,12.75
2022-11-09T04:15:17.740Z,12.82
2022-11-09T04:17:47.361Z,12.80
2022-11-09T04:20:14.255Z,12.86
2022-11-09T04:22:41.194Z,12.86
2022-11-09T04:25:08.358Z,12.86
2022-11-09T04:27:35.179Z,12.86
2022-11-09T04:30:02.022Z,12.95
2022-11-09T04:32:28.859Z,12.99
2022-11-09T04:34:55.676Z,12.96
2022-11-09T04:37:22.570Z,13.00
2022-11-09T04:39:49.379Z,13.01
2022-11-09T04:42:16.233Z,12.99
2022-11-09T04:44:43.047Z,12.81
2022-11-09T04:47:09.931Z,12.50
2022-11-09T04:49:36.816Z,12.35
2022-11-09T04:52:06.488Z,12.17
2022-11-09T04:54:34.083Z,12.12
2022-11-09T04:57:00.924Z,12.00
2022-11-09T04:59:27.831Z,11.78
2022-11-09T05:01:54.745Z,11.70
2022-11-09T05:04:21.546Z,11.65
2022-11-09T05:06:48.353Z,11.58
2022-11-09T05:09:15.313Z,11.52
2022-11-09T05:11:42.118Z,11.50
2022-11-09T05:14:08.926Z,11.52
2022-11-09T05:16:35.876Z,11.70
2022-11-09T05:19:02.788Z,11.49
2022-11-09T05:21:29.556Z,11.52
2022-11-09T05:23:59.483Z,11.54
2022-11-09T05:26:34.634Z,11.52
2022-11-09T05:29:03.640Z,11.58
2022-11-09T05:31:31.231Z,11.46
2022-11-09T05:33:59.447Z,11.56
2022-11-09T05:36:28.065Z,11.48
2022-11-09T05:38:55.477Z,11.47
2022-11-09T05:41:22.440Z,11.59
2022-11-09T05:43:49.347Z,11.55
2022-11-09T05:46:17.373Z,11.76
2022-11-09T05:48:45.384Z,11.66
2022-11-09T05:51:14.192Z,11.84
2022-11-09T05:53:46.180Z,11.76
2022-11-09T05:56:15.460Z,11.71
2022-11-09T05:58:42.991Z,11.73
2022-11-09T06:01:12.630Z,11.75
2022-11-09T06:03:40.497Z,11.88
2022-11-09T06:06:09.255Z,11.88
2022-11-09T06:08:37.903Z,12.02
2022-11-09T06:11:07.960Z,12.05
2022-11-09T06:13:34.810Z,12.16
2022-11-09T06:16:03.716Z,12.22
2022-11-09T06:18:32.508Z,12.45
2022-11-09T06:21:02.645Z,12.59
2022-11-09T06:23:30.350Z,12.65
2022-11-09T06:26:02.023Z,12.68
2022-11-09T06:28:29.389Z,12.81
2022-11-09T06:31:00.539Z,12.72
2022-11-09T06:33:29.886Z,12.83
2022-11-09T06:35:57.790Z,12.75
2022-11-09T06:38:26.585Z,12.84
2022-11-09T06:40:57.754Z,12.83
2022-11-09T06:43:25.564Z,12.71
2022-11-09T06:45:52.904Z,12.76
2022-11-09T06:48:20.544Z,12.90
2022-11-09T06:50:47.455Z,12.92
2022-11-09T06:53:16.639Z,12.85
2022-11-09T06:55:49.122Z,13.13
2022-11-09T06:58:17.363Z,12.96
2022-11-09T07:00:44.864Z,12.76
2022-11-09T07:03:16.624Z,12.81
2022-11-09T07:05:43.817Z,12.80
2022-11-09T07:08:11.139Z,12.85
2022-11-09T07:10:38.093Z,12.76
2022-11-09T07:13:05.820Z,12.71
2022-11-09T07:15:33.913Z,12.60
2022-11-09T07:18:02.064Z,12.74
2022-11-09T07:20:29.657Z,12.79
2022-11-09T07:22:56.533Z,12.94
2022-11-09T07:25:23.557Z,13.09
2022-11-09T07:27:50.532Z,13.18
2022-11-09T07:30:17.544Z,13.12
2022-11-09T07:33:08.074Z,13.30
2022-11-09T07:35:31.516Z,13.12
2022-11-09T07:38:02.148Z,13.15
2022-11-09T07:40:30.407Z,13.44
2022-11-09T07:43:01.723Z,13.61
2022-11-09T07:45:32.913Z,13.44
2022-11-09T07:48:02.503Z,13.32
2022-11-09T07:50:30.791Z,13.51
2022-11-09T07:52:59.536Z,13.32
2022-11-09T07:55:27.436Z,12.86
2022-11-09T07:58:03.713Z,13.15
2022-11-09T08:00:32.477Z,13.15
2022-11-09T08:02:59.561Z,13.33
2022-11-09T08:05:26.702Z,13.32
2022-11-09T08:08:01.837Z,13.56
2022-11-09T08:10:30.826Z,13.68
2022-11-09T08:13:01.082Z,13.96
2022-11-09T08:15:28.862Z,14.37
2022-11-09T08:18:00.278Z,14.40
2022-11-09T08:20:27.228Z,14.61
2022-11-09T08:22:54.066Z,14.42
2022-11-09T08:25:20.939Z,14.26
2022-11-09T08:27:47.968Z,14.03
2022-11-09T08:30:20.317Z,14.09
2022-11-09T08:32:48.878Z,13.98
2022-11-09T08:35:18.794Z,14.21
2022-11-09T08:37:47.337Z,14.51
2022-11-09T08:40:16.774Z,14.07
2022-11-09T08:42:43.636Z,14.34
2022-11-09T08:45:11.623Z,14.18
2022-11-09T08:47:41.202Z,14.44
2022-11-09T08:50:09.457Z,14.64
2022-11-09T08:52:36.966Z,14.93
2022-11-09T08:55:04.938Z,14.87
2022-11-09T08:57:31.862Z,14.81
2022-11-09T08:59:58.773Z,15.12
2022-11-09T09:02:25.735Z,15.19
2022-11-09T09:04:52.512Z,14.97
2022-11-09T09:07:19.428Z,15.15
2022-11-09T09:09:46.257Z,14.97
2022-11-09T09:12:13.135Z,14.74
2022-11-09T09:14:40.047Z,14.62
2022-11-09T09:17:06.856Z,14.69
2022-11-09T09:19:34.844Z,14.85
2022-11-09T09:22:02.011Z,14.98
2022-11-09T09:24:28.932Z,14.69
2022-11-09T09:26:55.847Z,14.60
2022-11-09T09:29:22.739Z,14.56
2022-11-09T09:31:49.547Z,14.59
2022-11-09T09:34:16.427Z,14.40
2022-11-09T09:36:47.662Z,14.60
2022-11-09T09:39:15.730Z,14.70
2022-11-09T09:41:54.540Z,14.61
2022-11-09T09:44:36.523Z,14.58
2022-11-09T09:47:17.660Z,14.62
2022-11-09T09:49:49.926Z,14.67
2022-11-09T09:52:24.054Z,14.71
2022-11-09T09:55:05.292Z,14.77
2022-11-09T09:57:35.415Z,14.87
2022-11-09T10:00:07.838Z,15.00
2022-11-09T10:02:38.777Z,14.85
2022-11-09T10:05:14.618Z,14.81
2022-11-09T10:07:50.400Z,14.83
2022-11-09T10:10:46.345Z,14.81
2022-11-09T10:13:13.132Z,14.44
2022-11-09T10:15:51.577Z,14.54
2022-11-09T10:18:34.584Z,14.55
2022-11-09T10:21:36.500Z,14.61
2022-11-09T10:24:23.388Z,14.53
2022-11-09T10:27:01.324Z,14.50
2022-11-09T10:29:35.748Z,14.60
2022-11-09T10:32:14.531Z,14.64
2022-11-09T10:35:14.104Z,14.86
2022-11-09T10:37:46.999Z,14.93
2022-11-09T10:40:22.735Z,14.81
2022-11-09T10:43:15.177Z,14.95
2022-11-09T10:46:05.097Z,14.90
2022-11-09T10:48:52.014Z,15.02
2022-11-09T10:51:43.886Z,15.09
2022-11-09T10:54:35.467Z,15.00
2022-11-09T10:57:23.315Z,14.89
2022-11-09T11:00:19.980Z,15.00
2022-11-09T11:03:17.563Z,15.39
2022-11-09T11:06:14.941Z,15.25
2022-11-09T11:09:06.626Z,15.27
2022-11-09T11:12:20.384Z,15.08
2022-11-09T11:15:29.576Z,15.55
2022-11-09T11:18:25.191Z,15.40
2022-11-09T11:21:19.038Z,15.55
2022-11-09T11:24:18.508Z,15.41
2022-11-09T11:27:15.379Z,15.25
2022-11-09T11:30:04.032Z,15.22
2022-11-09T11:32:50.856Z,15.19
2022-11-09T11:35:50.282Z,15.58
2022-11-09T11:38:57.636Z,15.55
2022-11-09T11:42:10.237Z,15.20
2022-11-09T11:45:38.916Z,15.09
2022-11-09T11:48:26.899Z,15.00
2022-11-09T11:51:19.918Z,15.37
2022-11-09T11:54:34.297Z,15.11
2022-11-09T11:57:32.162Z,14.90
2022-11-09T12:00:20.105Z,15.20
2022-11-09T12:03:21.606Z,15.25
2022-11-09T12:06:10.184Z,15.00
2022-11-09T12:09:14.368Z,15.09
2022-11-09T12:12:24.378Z,15.40
2022-11-09T12:15:27.232Z,15.29
2022-11-09T12:18:33.887Z,15.39
2022-11-09T12:21:26.843Z,15.54
2022-11-09T12:24:24.152Z,15.42
2022-11-09T12:27:36.895Z,15.43
2022-11-09T12:30:26.585Z,15.29
2022-11-09T12:33:36.310Z,15.50
2022-11-09T12:36:31.437Z,15.45
2022-11-09T12:39:46.038Z,15.43
2022-11-09T12:42:34.525Z,15.10
2022-11-09T12:45:36.174Z,15.17
2022-11-09T12:48:31.114Z,15.16
2022-11-09T12:51:18.053Z,15.21
2022-11-09T12:54:11.455Z,15.22
2022-11-09T12:57:01.499Z,15.03
2022-11-09T12:59:49.920Z,14.85
2022-11-09T13:02:38.974Z,14.69
2022-11-09T13:05:27.590Z,14.67
2022-11-09T13:08:30.959Z,14.48
2022-11-09T13:11:41.157Z,14.17
2022-11-09T13:14:38.299Z,14.18
2022-11-09T13:17:23.793Z,14.22
2022-11-09T13:24:06.954Z,14.15
2022-11-09T13:27:00.603Z,14.05
2022-11-09T13:29:52.338Z,13.97
2022-11-09T13:33:01.357Z,13.96
2022-11-09T13:35:46.489Z,13.95
2022-11-09T13:38:33.144Z,13.95
2022-11-09T13:41:32.088Z,13.78
2022-11-09T13:44:19.393Z,13.80
2022-11-09T13:47:05.121Z,13.73
2022-11-09T13:49:52.163Z,13.75
2022-11-09T13:52:48.724Z,13.70
2022-11-09T13:55:38.398Z,13.69
2022-11-09T13:58:37.608Z,13.60
2022-11-09T14:01:34.275Z,13.48
2022-11-09T14:04:28.626Z,13.38
2022-11-09T14:07:24.637Z,13.22
2022-11-09T14:10:28.255Z,13.27
2022-11-09T14:13:46.034Z,13.22
2022-11-09T14:16:59.994Z,13.09
2022-11-09T14:19:48.536Z,13.01
2022-11-09T14:22:35.716Z,12.94
2022-11-09T14:25:24.337Z,12.93
2022-11-09T14:28:37.300Z,12.81
2022-11-09T14:31:31.889Z,12.80
2022-11-09T14:34:18.720Z,12.68
2022-11-09T14:37:06.614Z,12.57
2022-11-09T14:39:54.220Z,12.57
2022-11-09T14:42:45.940Z,12.56
2022-11-09T14:45:31.867Z,12.53
2022-11-09T14:48:19.557Z,12.49
2022-11-09T14:51:12.111Z,12.40
2022-11-09T14:54:00.738Z,12.35
2022-11-09T14:56:46.851Z,12.39
2022-11-09T14:59:34.670Z,12.37
2022-11-09T15:02:22.129Z,12.21
2022-11-09T15:05:08.086Z,12.21
2022-11-09T15:07:53.638Z,12.16
2022-11-09T15:10:39.599Z,12.16
2022-11-09T15:27:35.861Z,11.19
2022-11-09T15:30:59.386Z,11.37
2022-11-09T15:33:52.510Z,11.39
2022-11-09T15:36:42.021Z,11.44
2022-11-09T15:39:30.358Z,11.45
2022-11-09T15:42:15.782Z,11.50
2022-11-09T15:45:01.438Z,11.57
2022-11-09T15:48:05.125Z,11.62
2022-11-09T15:50:50.415Z,11.58
2022-11-09T15:53:35.858Z,11.50
2022-11-09T15:56:24.330Z,11.50
2022-11-09T15:59:22.850Z,11.46
2022-11-09T16:02:11.705Z,11.39
2022-11-09T16:04:57.296Z,11.31
2022-11-09T16:07:53.868Z,11.35
2022-11-09T16:10:40.731Z,11.30
2022-11-09T16:13:26.194Z,11.39
2022-11-09T16:16:13.288Z,11.28
2022-11-09T16:18:59.459Z,11.28
2022-11-09T16:21:44.716Z,11.29
2022-11-09T16:24:30.246Z,11.29
2022-11-09T16:27:47.972Z,11.25
2022-11-09T16:30:21.626Z,11.20
2022-11-09T16:33:07.185Z,11.18
2022-11-09T16:35:53.926Z,11.24
2022-11-09T16:38:46.139Z,11.25
2022-11-09T16:41:31.746Z,11.14
2022-11-09T16:44:22.072Z,11.13
2022-11-09T16:47:12.601Z,11.12
2022-11-09T16:49:57.878Z,10.99
2022-11-09T16:52:43.629Z,10.98
2022-11-09T16:55:29.263Z,10.94
2022-11-09T16:58:14.826Z,10.91
2022-11-09T17:01:20.500Z,10.85
2022-11-09T17:04:06.445Z,10.87
2022-11-09T17:06:52.545Z,10.83
2022-11-09T17:09:37.902Z,10.79
2022-11-09T17:12:23.285Z,10.78
2022-11-09T17:15:09.533Z,10.68
2022-11-09T17:17:55.321Z,10.69
2022-11-09T17:20:49.379Z,10.75
2022-11-09T17:23:34.898Z,10.69
2022-11-09T17:26:21.782Z,10.72
2022-11-09T17:29:07.396Z,10.79
2022-11-09T17:31:52.746Z,10.67
2022-11-09T17:34:38.304Z,10.71
2022-11-09T17:37:24.003Z,10.64
2022-11-09T17:40:09.916Z,10.70
2022-11-09T17:42:57.091Z,10.63
2022-11-09T17:45:42.508Z,10.64
2022-11-09T17:48:27.960Z,10.59
2022-11-09T17:51:14.776Z,10.56
2022-11-09T17:54:01.968Z,10.54
2022-11-09T17:56:47.012Z,10.48
2022-11-09T17:59:32.414Z,10.38
2022-11-09T18:02:18.653Z,10.37
2022-11-09T18:05:04.374Z,10.36
2022-11-09T18:07:50.082Z,10.39
2022-11-09T18:10:40.064Z,10.42
2022-11-09T18:13:26.517Z,10.42
2022-11-09T18:16:17.496Z,10.36
2022-11-09T18:19:04.645Z,10.32
2022-11-09T18:21:49.974Z,10.36
2022-11-09T18:24:36.643Z,10.40
2022-11-09T18:27:27.440Z,10.42
2022-11-09T18:30:17.164Z,10.41
2022-11-09T18:33:02.527Z,10.40
2022-11-09T18:36:02.476Z,10.40
2022-11-09T18:38:48.092Z,10.40
2022-11-09T18:41:33.885Z,10.40
2022-11-09T18:44:19.388Z,10.44
2022-11-09T18:47:08.637Z,10.49
2022-11-09T18:49:54.614Z,10.42
2022-11-09T18:52:40.239Z,10.38
2022-11-09T18:55:25.818Z,10.44
2022-11-09T18:58:11.049Z,10.36
2022-11-09T19:01:05.657Z,10.36
2022-11-09T19:03:56.313Z,10.36
2022-11-09T19:06:44.823Z,10.26
2022-11-09T19:09:38.729Z,10.31
2022-11-09T19:12:25.161Z,10.25
2022-11-09T19:15:11.189Z,10.25
2022-11-09T19:17:56.879Z,10.17
2022-11-09T19:20:42.678Z,10.09
2022-11-09T19:23:33.826Z,10.19
2022-11-09T19:26:20.477Z,10.17
2022-11-09T19:29:07.544Z,10.13
2022-11-09T19:31:53.511Z,10.15
2022-11-09T19:34:41.078Z,10.13
2022-11-09T19:37:26.260Z,10.16
2022-11-09T19:40:12.200Z,10.11
2022-11-09T19:42:57.677Z,10.02
2022-11-09T19:45:43.151Z,9.87
2022-11-09T19:48:28.586Z,9.86
2022-11-09T19:51:15.717Z,9.85
2022-11-09T19:54:03.405Z,9.87
2022-11-09T19:56:49.131Z,9.83
2022-11-09T19:59:35.611Z,9.74
2022-11-09T20:02:21.148Z,9.80
2022-11-09T20:05:07.565Z,9.86
2022-11-09T20:07:53.207Z,9.82
2022-11-09T20:10:38.781Z,9.91
2022-11-09T20:13:24.948Z,9.94
2022-11-09T20:16:10.945Z,9.96
2022-11-09T20:18:56.467Z,9.97
2022-11-09T20:21:42.741Z,9.84
2022-11-09T20:24:27.924Z,9.87
2022-11-09T20:27:14.708Z,9.89
2022-11-09T20:30:00.476Z,9.87
2022-11-09T20:32:45.990Z,9.80
2022-11-09T20:35:31.460Z,9.81
2022-11-09T20:38:17.127Z,9.73
2022-11-09T20:41:05.667Z,9.66
2022-11-09T20:43:51.052Z,9.47
2022-11-09T20:46:37.105Z,9.53
2022-11-09T20:49:22.538Z,9.60
2022-11-09T20:52:07.894Z,9.59
2022-11-09T20:54:53.412Z,9.59
2022-11-09T20:57:38.622Z,9.64
2022-11-09T21:00:24.734Z,9.70
2022-11-09T21:03:10.527Z,9.69
2022-11-09T21:05:59.083Z,9.67
2022-11-09T21:08:47.325Z,9.71
2022-11-09T21:11:35.902Z,9.64
2022-11-09T21:14:21.557Z,9.60
2022-11-09T21:17:06.929Z,9.59
2022-11-09T21:19:52.391Z,9.51
2022-11-09T21:23:03.872Z,9.37
2022-11-09T21:26:08.135Z,9.32
2022-11-09T21:29:11.909Z,9.27
2022-11-09T21:31:57.453Z,9.27
2022-11-09T21:34:42.718Z,9.23
2022-11-09T21:37:27.964Z,9.16
2022-11-09T21:40:13.405Z,9.12
2022-11-09T21:42:58.694Z,9.08
2022-11-09T21:45:49.308Z,9.08
2022-11-09T21:48:34.995Z,9.05
2022-11-09T21:51:20.444Z,9.00
2022-11-09T21:54:07.148Z,8.92
2022-11-09T21:56:52.878Z,8.77
2022-11-09T21:59:38.389Z,8.81
2022-11-09T22:02:24.001Z,8.78
2022-11-09T22:05:09.787Z,8.70
2022-11-09T22:07:54.949Z,8.68
2022-11-09T22:10:40.424Z,8.56
2022-11-09T22:13:44.166Z,8.46
2022-11-09T22:16:34.354Z,8.50
2022-11-09T22:19:38.157Z,8.47
2022-11-09T22:22:24.474Z,8.43
2022-11-09T22:25:10.174Z,8.46
2022-11-09T22:27:55.855Z,8.40
2022-11-09T22:30:41.359Z,8.31
2022-11-09T22:33:27.682Z,8.19
2022-11-09T22:36:14.376Z,8.27
2022-11-09T22:38:59.591Z,8.30
2022-11-09T22:41:44.980Z,8.27
2022-11-09T22:44:30.508Z,8.30
2022-11-09T22:47:15.821Z,8.28
2022-11-09T22:50:01.225Z,8.39
2022-11-09T22:52:46.570Z,8.44
2022-11-09T22:55:32.076Z,8.47
2022-11-09T22:58:17.638Z,8.48
2022-11-09T23:01:14.798Z,8.56
2022-11-09T23:04:00.486Z,8.61
2022-11-09T23:06:45.757Z,8.56
2022-11-09T23:09:31.164Z,8.47
2022-11-09T23:12:16.368Z,8.56
2022-11-09T23:15:05.254Z,8.62
2022-11-09T23:18:15.236Z,8.59
2022-11-09T23:21:01.067Z,8.63
2022-11-09T23:23:46.840Z,8.55
2022-11-09T23:26:33.556Z,8.57
2022-11-09T23:29:19.152Z,8.54
2022-11-09T23:32:04.531Z,8.43
2022-11-09T23:34:49.699Z,8.38
2022-11-09T23:37:35.108Z,8.36
2022-11-09T23:40:20.335Z,8.39
2022-11-09T23:43:08.491Z,8.24
2022-11-09T23:45:54.295Z,8.17
2022-11-09T23:48:41.347Z,8.10
2022-11-09T23:51:26.974Z,7.97
2022-11-09T23:54:12.296Z,7.91
2022-11-09T23:56:57.647Z,7.99
2022-11-09T23:59:43.037Z,7.90
